Time;durP1;ratioP1;P1;durP2;ratioP2;P2;SDS_P1;SDS_P2;PMS_P1;PMS_P2;Temp;Humidity;BMP_temperature;BMP_pressure;BME280_temperature;BME280_humidity;BME280_pressure;Samples;Min_cycle;Max_cycle;Signal;HPM_P1;HPM_P2
2024/04/20 00:00:26;;;;;;;1.10;1.10;;;;;;;;;;4990840;28;20043;-77
2024/04/20 00:02:52;;;;;;;1.20;1.20;;;;;;;;;;4989738;28;20042;-75
2024/04/20 00:05:18;;;;;;;0.93;0.93;;;;;;;;;;4992343;28;20802;-76
2024/04/20 00:07:45;;;;;;;1.13;1.13;;;;;;;;;;4992538;28;20539;-77
2024/04/20 00:10:12;;;;;;;1.10;1.10;;;;;;;;;;4974118;28;20033;-77
2024/04/20 00:12:38;;;;;;;2.60;1.92;;;;;;;;;;4974167;28;20042;-75
2024/04/20 00:15:04;;;;;;;5.93;3.78;;;;;;;;;;4973219;28;20053;-75
2024/04/20 00:17:31;;;;;;;8.15;3.80;;;;;;;;;;4991386;28;20474;-76
2024/04/20 00:19:56;;;;;;;4.82;3.60;;;;;;;;;;4994916;28;20042;-76
2024/04/20 00:22:22;;;;;;;10.65;5.45;;;;;;;;;;4990126;28;20483;-77
2024/04/20 00:24:49;;;;;;;4.18;3.22;;;;;;;;;;4987825;28;20537;-75
2024/04/20 00:27:15;;;;;;;4.03;2.90;;;;;;;;;;4976082;28;20136;-77
2024/04/20 00:29:41;;;;;;;4.22;3.67;;;;;;;;;;4992402;28;20330;-77
2024/04/20 00:32:07;;;;;;;9.02;5.65;;;;;;;;;;4975511;28;20110;-78
2024/04/20 00:34:32;;;;;;;8.77;5.05;;;;;;;;;;4989167;28;20093;-77
2024/04/20 00:36:58;;;;;;;6.97;4.18;;;;;;;;;;4990407;28;20108;-76
2024/04/20 00:39:24;;;;;;;4.18;3.65;;;;;;;;;;4973192;28;20042;-78
2024/04/20 00:41:52;;;;;;;2.30;2.20;;;;;;;;;;4990713;28;20049;-77
2024/04/20 00:44:18;;;;;;;1.42;1.40;;;;;;;;;;4989888;28;20066;-78
2024/04/20 00:46:44;;;;;;;1.70;1.60;;;;;;;;;;4990378;28;20050;-77
2024/04/20 00:49:09;;;;;;;1.35;1.35;;;;;;;;;;4990707;28;20030;-77
2024/04/20 00:51:35;;;;;;;1.30;1.30;;;;;;;;;;4974928;28;20069;-77
2024/04/20 00:54:01;;;;;;;1.25;1.25;;;;;;;;;;4974815;28;20133;-77
2024/04/20 00:56:27;;;;;;;1.70;1.60;;;;;;;;;;4975881;28;20082;-76
2024/04/20 00:58:53;;;;;;;1.45;1.38;;;;;;;;;;4998844;28;20034;-77
2024/04/20 01:01:19;;;;;;;3.30;1.48;;;;;;;;;;4974634;28;20086;-77
2024/04/20 01:03:44;;;;;;;4.13;1.63;;;;;;;;;;5011217;28;20054;-77
2024/04/20 01:06:10;;;;;;;2.28;2.17;;;;;;;;;;4979711;28;20053;-76
2024/04/20 01:08:37;;;;;;;3.78;2.75;;;;;;;;;;5012756;28;20066;-75
2024/04/20 01:11:03;;;;;;;5.35;3.20;;;;;;;;;;5013139;28;20053;-76
2024/04/20 01:13:29;;;;;;;4.68;4.13;;;;;;;;;;5010804;28;20053;-76
2024/04/20 01:15:55;;;;;;;8.15;3.45;;;;;;;;;;5012042;28;20044;-76
2024/04/20 01:18:21;;;;;;;5.32;3.35;;;;;;;;;;5011206;28;20510;-77
2024/04/20 01:20:47;;;;;;;3.45;3.08;;;;;;;;;;5011037;28;20038;-76
2024/04/20 01:23:12;;;;;;;2.13;2.03;;;;;;;;;;4976957;28;20069;-77
2024/04/20 01:25:57;;;;;;;3.10;2.90;;;;;;;;;;5010234;28;20102;-76
2024/04/20 01:28:23;;;;;;;2.38;2.17;;;;;;;;;;5000429;28;20046;-75
2024/04/20 01:30:49;;;;;;;1.98;1.88;;;;;;;;;;4992937;28;20042;-76
2024/04/20 01:33:14;;;;;;;2.63;2.03;;;;;;;;;;4992296;28;20082;-76
2024/04/20 01:35:41;;;;;;;2.00;1.90;;;;;;;;;;4993665;28;20046;-77
2024/04/20 01:38:07;;;;;;;1.90;1.80;;;;;;;;;;4992676;28;20125;-76
2024/04/20 01:40:33;;;;;;;2.17;2.00;;;;;;;;;;4990685;28;20132;-77
2024/04/20 01:42:59;;;;;;;1.27;1.27;;;;;;;;;;4956437;28;20118;-76
2024/04/20 01:45:25;;;;;;;1.98;1.88;;;;;;;;;;4973687;28;20068;-75
2024/04/20 01:47:51;;;;;;;1.88;1.77;;;;;;;;;;4973613;28;20042;-75
2024/04/20 01:50:17;;;;;;;1.75;1.73;;;;;;;;;;4974528;28;20136;-76
2024/04/20 01:52:43;;;;;;;2.22;2.10;;;;;;;;;;4971983;28;20045;-77
2024/04/20 01:55:08;;;;;;;2.33;2.22;;;;;;;;;;4990350;28;20046;-73
2024/04/20 01:57:34;;;;;;;2.83;2.63;;;;;;;;;;4989853;28;20054;-74
2024/04/20 02:00:01;;;;;;;2.20;2.10;;;;;;;;;;4990079;28;20050;-75
2024/04/20 02:02:26;;;;;;;1.33;1.33;;;;;;;;;;4957564;28;20122;-74
2024/04/20 02:04:52;;;;;;;4.38;2.38;;;;;;;;;;4979210;28;20102;-75
2024/04/20 02:07:18;;;;;;;2.10;2.00;;;;;;;;;;4998372;28;20050;-75
2024/04/20 02:09:44;;;;;;;1.98;1.88;;;;;;;;;;4997639;28;20133;-75
2024/04/20 02:12:13;;;;;;;2.03;1.92;;;;;;;;;;4976764;28;20852;-75
2024/04/20 02:14:39;;;;;;;1.77;1.67;;;;;;;;;;4990824;28;20048;-75
2024/04/20 02:17:05;;;;;;;2.25;1.90;;;;;;;;;;4977571;28;20038;-74
2024/04/20 02:19:31;;;;;;;1.92;1.83;;;;;;;;;;4994202;28;20133;-75
2024/04/20 02:21:57;;;;;;;1.67;1.60;;;;;;;;;;4995936;28;20038;-75
2024/04/20 02:24:23;;;;;;;1.90;1.80;;;;;;;;;;4978893;28;20050;-74
2024/04/20 02:26:49;;;;;;;2.42;2.30;;;;;;;;;;4997913;28;20434;-74
2024/04/20 02:29:15;;;;;;;2.22;2.13;;;;;;;;;;4994137;28;20124;-74
2024/04/20 02:31:40;;;;;;;2.30;2.20;;;;;;;;;;4976092;28;20551;-75
2024/04/20 02:34:06;;;;;;;2.45;2.35;;;;;;;;;;4992183;28;20056;-75
2024/04/20 02:36:34;;;;;;;2.22;2.10;;;;;;;;;;4975154;28;20042;-74
2024/04/20 02:38:59;;;;;;;1.98;1.83;;;;;;;;;;4977126;28;20030;-75
2024/04/20 02:41:25;;;;;;;1.80;1.70;;;;;;;;;;4991388;28;20049;-74
2024/04/20 02:43:51;;;;;;;1.40;1.40;;;;;;;;;;4990649;28;20047;-75
2024/04/20 02:46:18;;;;;;;1.90;1.80;;;;;;;;;;4989966;28;20135;-75
2024/04/20 02:48:45;;;;;;;1.70;1.70;;;;;;;;;;4989392;28;20038;-76
2024/04/20 02:51:11;;;;;;;1.70;1.70;;;;;;;;;;4989630;28;20539;-75
2024/04/20 02:53:37;;;;;;;2.03;1.92;;;;;;;;;;4987194;28;20105;-76
2024/04/20 02:56:03;;;;;;;1.90;1.80;;;;;;;;;;4990245;28;20043;-76
2024/04/20 02:58:29;;;;;;;1.98;1.88;;;;;;;;;;4987865;28;20042;-74
2024/04/20 03:00:59;;;;;;;1.80;1.63;;;;;;;;;;4989379;28;20108;-74
2024/04/20 03:03:28;;;;;;;1.80;1.80;;;;;;;;;;4988225;28;20058;-75
2024/04/20 03:05:54;;;;;;;1.67;1.63;;;;;;;;;;4972133;28;20267;-75
2024/04/20 03:08:20;;;;;;;1.60;1.60;;;;;;;;;;4972163;28;20035;-74
2024/04/20 03:10:46;;;;;;;1.80;1.70;;;;;;;;;;4989738;28;20046;-75
2024/04/20 03:13:14;;;;;;;2.10;2.00;;;;;;;;;;4970880;28;20085;-75
2024/04/20 03:15:40;;;;;;;2.05;1.85;;;;;;;;;;4989103;28;20042;-74
2024/04/20 03:18:06;;;;;;;2.20;2.10;;;;;;;;;;4989179;28;20039;-76
2024/04/20 03:20:32;;;;;;;1.90;1.80;;;;;;;;;;4989235;28;20474;-74
2024/04/20 03:22:58;;;;;;;3.60;2.33;;;;;;;;;;4955853;28;20046;-76
2024/04/20 03:25:24;;;;;;;2.35;2.25;;;;;;;;;;4992055;28;20562;-74
2024/04/20 03:27:50;;;;;;;3.72;2.30;;;;;;;;;;4992835;28;20050;-76
2024/04/20 03:30:16;;;;;;;2.20;2.10;;;;;;;;;;4985923;28;20569;-79
2024/04/20 03:32:42;;;;;;;2.30;2.20;;;;;;;;;;4974909;28;20129;-78
2024/04/20 03:35:07;;;;;;;2.55;2.45;;;;;;;;;;4993186;28;20500;-79
2024/04/20 03:37:33;;;;;;;2.15;2.05;;;;;;;;;;4993129;28;20133;-78
2024/04/20 03:39:59;;;;;;;2.30;2.20;;;;;;;;;;4975195;28;20453;-80
2024/04/20 03:42:25;;;;;;;2.30;2.20;;;;;;;;;;4960118;28;20069;-79
2024/04/20 03:44:51;;;;;;;2.35;2.25;;;;;;;;;;4991934;28;20422;-79
2024/04/20 03:47:17;;;;;;;2.00;1.90;;;;;;;;;;4964573;28;20430;-79
2024/04/20 03:49:43;;;;;;;2.05;1.95;;;;;;;;;;4971708;28;20042;-81
2024/04/20 03:52:09;;;;;;;2.00;1.90;;;;;;;;;;4998411;28;20057;-77
2024/04/20 03:54:34;;;;;;;2.40;2.20;;;;;;;;;;4993584;28;20046;-80
2024/04/20 03:57:00;;;;;;;2.60;2.30;;;;;;;;;;4995153;28;20072;-82
2024/04/20 03:59:26;;;;;;;2.42;1.73;;;;;;;;;;4958414;28;20043;-80
2024/04/20 04:01:52;;;;;;;2.53;2.33;;;;;;;;;;4977741;28;20046;-81
2024/04/20 04:04:18;;;;;;;2.95;1.95;;;;;;;;;;4958071;28;20082;-78
2024/04/20 04:06:44;;;;;;;2.20;2.10;;;;;;;;;;4973821;28;20074;-78
2024/04/20 04:09:10;;;;;;;1.80;1.75;;;;;;;;;;4970585;28;20068;-76
2024/04/20 04:11:35;;;;;;;2.40;2.20;;;;;;;;;;4973360;28;20049;-75
2024/04/20 04:14:01;;;;;;;1.50;1.50;;;;;;;;;;4973609;28;20050;-78
2024/04/20 04:16:27;;;;;;;2.30;2.20;;;;;;;;;;4973593;28;20093;-76
2024/04/20 04:18:53;;;;;;;2.40;2.30;;;;;;;;;;4991171;28;20057;-77
2024/04/20 04:21:19;;;;;;;1.90;1.80;;;;;;;;;;4991420;28;20038;-77
2024/04/20 04:23:44;;;;;;;2.05;1.95;;;;;;;;;;4972107;28;20046;-78
2024/04/20 04:26:11;;;;;;;2.75;2.20;;;;;;;;;;4974707;28;20662;-76
2024/04/20 04:28:37;;;;;;;2.20;2.10;;;;;;;;;;4990844;28;20102;-76
2024/04/20 04:31:03;;;;;;;2.40;2.20;;;;;;;;;;4974316;28;20514;-78
2024/04/20 04:33:29;;;;;;;2.20;2.10;;;;;;;;;;4989790;28;20058;-75
2024/04/20 04:35:56;;;;;;;2.60;2.50;;;;;;;;;;4973435;28;20456;-76
2024/04/20 04:38:22;;;;;;;2.40;2.30;;;;;;;;;;4974065;28;20478;-75
2024/04/20 04:40:47;;;;;;;2.53;2.40;;;;;;;;;;4973759;28;20026;-77
2024/04/20 04:43:13;;;;;;;6.15;2.20;;;;;;;;;;4990053;28;20396;-81
2024/04/20 04:45:39;;;;;;;2.28;2.17;;;;;;;;;;4963712;28;20404;-80
2024/04/20 04:48:05;;;;;;;2.05;1.95;;;;;;;;;;4976992;28;20429;-77
2024/04/20 04:50:31;;;;;;;2.20;2.00;;;;;;;;;;4972084;28;20042;-77
2024/04/20 04:52:57;;;;;;;2.50;2.40;;;;;;;;;;4970580;28;20126;-77
2024/04/20 04:55:23;;;;;;;2.30;2.20;;;;;;;;;;4953259;28;20035;-76
2024/04/20 04:57:48;;;;;;;2.75;2.55;;;;;;;;;;4973731;28;20053;-76
2024/04/20 05:00:14;;;;;;;2.40;2.20;;;;;;;;;;4974061;28;20552;-78
2024/04/20 05:02:40;;;;;;;2.20;2.10;;;;;;;;;;4989966;28;20050;-77
2024/04/20 05:05:06;;;;;;;2.10;2.00;;;;;;;;;;4973703;28;20071;-76
2024/04/20 05:07:32;;;;;;;3.13;2.80;;;;;;;;;;4965503;28;20050;-76
2024/04/20 05:09:58;;;;;;;2.60;2.20;;;;;;;;;;4973306;28;20128;-77
2024/04/20 05:12:24;;;;;;;2.30;2.20;;;;;;;;;;4955926;28;20038;-75
2024/04/20 05:14:51;;;;;;;2.05;1.95;;;;;;;;;;4989112;28;20050;-77
2024/04/20 05:17:17;;;;;;;3.67;2.25;;;;;;;;;;4986258;28;20042;-77
2024/04/20 05:19:43;;;;;;;2.47;2.38;;;;;;;;;;4989884;28;20042;-76
2024/04/20 05:22:09;;;;;;;2.60;2.40;;;;;;;;;;4991039;28;20049;-76
2024/04/20 05:24:34;;;;;;;2.20;2.10;;;;;;;;;;4988563;28;20062;-78
2024/04/20 05:27:00;;;;;;;3.75;2.65;;;;;;;;;;4989971;28;20068;-77
2024/04/20 05:29:26;;;;;;;3.53;2.30;;;;;;;;;;4990318;28;20042;-78
2024/04/20 05:31:52;;;;;;;3.85;2.20;;;;;;;;;;4989776;28;20446;-74
2024/04/20 05:34:18;;;;;;;2.08;1.98;;;;;;;;;;4990772;28;20059;-79
2024/04/20 05:36:44;;;;;;;2.55;2.40;;;;;;;;;;4990945;28;20065;-80
2024/04/20 05:39:10;;;;;;;2.40;2.30;;;;;;;;;;4953961;28;20026;-78
2024/04/20 05:41:36;;;;;;;2.35;2.20;;;;;;;;;;4972554;28;20426;-78
2024/04/20 05:44:01;;;;;;;3.65;3.35;;;;;;;;;;4989805;28;20053;-78
2024/04/20 05:46:27;;;;;;;2.47;2.38;;;;;;;;;;4971949;28;20046;-78
2024/04/20 05:48:54;;;;;;;2.45;2.35;;;;;;;;;;4990392;28;20125;-79
2024/04/20 05:51:20;;;;;;;6.20;2.90;;;;;;;;;;4990182;28;20053;-79
2024/04/20 05:53:46;;;;;;;5.78;2.40;;;;;;;;;;4973883;28;20097;-79
2024/04/20 05:56:12;;;;;;;2.70;2.50;;;;;;;;;;4995432;28;20038;-77
2024/04/20 05:58:38;;;;;;;3.33;2.80;;;;;;;;;;4950779;28;21417;-81
2024/04/20 06:01:04;;;;;;;3.33;2.55;;;;;;;;;;4991187;28;20153;-78
2024/04/20 06:03:30;;;;;;;5.50;3.45;;;;;;;;;;4990252;28;20086;-81
2024/04/20 06:05:56;;;;;;;2.40;2.30;;;;;;;;;;4955789;28;20035;-79
2024/04/20 06:08:22;;;;;;;2.53;2.33;;;;;;;;;;4975067;28;20145;-79
2024/04/20 06:10:53;;;;;;;3.63;2.20;;;;;;;;;;4973980;28;20368;-77
2024/04/20 06:13:19;;;;;;;2.65;2.45;;;;;;;;;;4985347;28;20115;-78
2024/04/20 06:15:45;;;;;;;3.03;2.83;;;;;;;;;;4989773;28;20113;-78
2024/04/20 06:18:11;;;;;;;2.63;2.53;;;;;;;;;;4989632;28;20077;-78
2024/04/20 06:20:37;;;;;;;7.75;2.83;;;;;;;;;;4972059;28;20048;-78
2024/04/20 06:23:06;;;;;;;2.78;2.20;;;;;;;;;;4988272;28;20082;-80
2024/04/20 06:25:35;;;;;;;2.55;2.42;;;;;;;;;;4929711;28;20093;-81
2024/04/20 06:28:01;;;;;;;2.20;2.10;;;;;;;;;;5004245;28;20056;-84
2024/04/20 06:30:26;;;;;;;2.20;2.10;;;;;;;;;;5004159;28;20506;-82
2024/04/20 06:32:52;;;;;;;5.95;2.40;;;;;;;;;;4998323;28;20042;-82
2024/04/20 06:35:37;;;;;;;2.55;2.38;;;;;;;;;;4979664;28;20042;-81
2024/04/20 06:38:03;;;;;;;2.53;2.33;;;;;;;;;;4988578;28;20030;-82
2024/04/20 06:40:29;;;;;;;2.03;1.90;;;;;;;;;;4971484;28;20045;-79
2024/04/20 06:42:55;;;;;;;2.30;2.20;;;;;;;;;;4996462;28;20042;-82
2024/04/20 06:45:21;;;;;;;4.95;2.45;;;;;;;;;;4980608;28;20053;-81
2024/04/20 06:47:47;;;;;;;2.90;2.70;;;;;;;;;;4982752;28;20031;-81
2024/04/20 06:50:17;;;;;;;2.40;2.30;;;;;;;;;;4996979;28;20514;-81
2024/04/20 06:52:44;;;;;;;3.83;2.85;;;;;;;;;;4981856;28;20114;-81
2024/04/20 06:55:10;;;;;;;2.90;2.40;;;;;;;;;;4981885;28;20064;-80
2024/04/20 06:57:36;;;;;;;2.67;2.47;;;;;;;;;;4979754;28;20522;-81
2024/04/20 07:00:01;;;;;;;2.60;2.40;;;;;;;;;;4984706;28;20050;-82
2024/04/20 07:02:30;;;;;;;5.18;2.13;;;;;;;;;;5002461;28;20050;-81
2024/04/20 07:04:55;;;;;;;3.25;2.42;;;;;;;;;;5001203;28;20055;-81
2024/04/20 07:07:21;;;;;;;2.08;1.98;;;;;;;;;;5003685;28;20044;-82
2024/04/20 07:09:48;;;;;;;3.60;2.42;;;;;;;;;;4995945;28;20034;-82
2024/04/20 07:12:15;;;;;;;2.70;2.50;;;;;;;;;;5005607;28;20077;-81
2024/04/20 07:14:41;;;;;;;2.95;2.10;;;;;;;;;;5003162;28;20050;-82
2024/04/20 07:17:07;;;;;;;4.38;2.50;;;;;;;;;;4979727;28;20043;-83
2024/04/20 07:19:33;;;;;;;4.05;2.00;;;;;;;;;;4969170;28;20049;-82
2024/04/20 07:21:59;;;;;;;4.75;2.00;;;;;;;;;;4984344;28;20134;-81
2024/04/20 07:24:25;;;;;;;2.28;2.13;;;;;;;;;;5002098;28;20065;-82
2024/04/20 07:26:51;;;;;;;2.47;2.28;;;;;;;;;;5005201;28;20049;-80
2024/04/20 07:29:17;;;;;;;1.90;1.80;;;;;;;;;;5011018;28;20542;-83
2024/04/20 07:31:45;;;;;;;2.13;2.03;;;;;;;;;;4994150;28;20042;-82
2024/04/20 07:34:11;;;;;;;2.33;2.22;;;;;;;;;;4994447;28;20053;-82
2024/04/20 07:36:37;;;;;;;1.95;1.85;;;;;;;;;;4960889;28;20046;-83
2024/04/20 07:39:03;;;;;;;3.53;2.03;;;;;;;;;;5009465;28;20046;-82
2024/04/20 07:41:29;;;;;;;1.75;1.65;;;;;;;;;;4986616;28;20046;-81
2024/04/20 07:43:55;;;;;;;2.17;2.08;;;;;;;;;;5004892;28;20593;-81
2024/04/20 07:46:21;;;;;;;2.67;2.15;;;;;;;;;;5001911;28;20046;-81
2024/04/20 07:48:48;;;;;;;3.50;2.05;;;;;;;;;;4985125;28;20046;-81
2024/04/20 07:51:15;;;;;;;2.17;2.03;;;;;;;;;;5003009;28;20109;-81
2024/04/20 07:53:40;;;;;;;2.25;2.05;;;;;;;;;;4999998;28;20191;-80
2024/04/20 07:56:06;;;;;;;1.50;1.50;;;;;;;;;;5001120;28;20034;-80
2024/04/20 07:58:32;;;;;;;3.83;2.25;;;;;;;;;;4998575;28;20058;-80
2024/04/20 08:00:58;;;;;;;2.53;2.20;;;;;;;;;;4998530;28;20057;-80
2024/04/20 08:03:24;;;;;;;2.38;2.13;;;;;;;;;;4982358;28;20231;-80
2024/04/20 08:05:50;;;;;;;5.35;2.20;;;;;;;;;;4982556;28;20049;-79
2024/04/20 08:08:15;;;;;;;2.08;1.90;;;;;;;;;;4998912;28;20039;-79
2024/04/20 08:10:41;;;;;;;2.40;2.20;;;;;;;;;;4998121;28;20038;-81
2024/04/20 08:13:08;;;;;;;2.88;1.55;;;;;;;;;;4995317;28;20121;-81
2024/04/20 08:15:33;;;;;;;1.70;1.60;;;;;;;;;;4995118;28;20163;-81
2024/04/20 08:17:59;;;;;;;1.33;1.33;;;;;;;;;;4977034;28;20129;-80
2024/04/20 08:20:25;;;;;;;1.92;1.73;;;;;;;;;;4977671;28;20057;-81
2024/04/20 08:22:51;;;;;;;1.65;1.55;;;;;;;;;;4993060;28;20038;-79
2024/04/20 08:25:36;;;;;;;5.40;1.95;;;;;;;;;;4975985;28;20153;-81
2024/04/20 08:28:02;;;;;;;1.48;1.38;;;;;;;;;;4969321;28;20038;-79
2024/04/20 08:30:27;;;;;;;1.65;1.55;;;;;;;;;;4958772;28;20044;-79
2024/04/20 08:32:53;;;;;;;2.90;1.60;;;;;;;;;;4993133;28;20049;-80
2024/04/20 08:35:19;;;;;;;1.50;1.50;;;;;;;;;;4976489;28;20042;-80
2024/04/20 08:37:46;;;;;;;2.03;1.70;;;;;;;;;;4993720;28;20821;-81
2024/04/20 08:40:14;;;;;;;2.22;1.88;;;;;;;;;;4977082;28;20042;-80
2024/04/20 08:42:41;;;;;;;2.10;2.00;;;;;;;;;;4999824;28;20042;-80
2024/04/20 08:45:09;;;;;;;1.95;1.52;;;;;;;;;;4982662;28;20042;-80
2024/04/20 08:47:34;;;;;;;3.72;1.90;;;;;;;;;;4981972;28;20049;-81
2024/04/20 08:50:00;;;;;;;1.45;1.40;;;;;;;;;;4994099;28;20050;-85
2024/04/20 08:52:26;;;;;;;2.53;1.42;;;;;;;;;;5015507;28;20042;-84
2024/04/20 08:54:52;;;;;;;1.60;1.60;;;;;;;;;;4996537;28;20050;-83
2024/04/20 09:00:03;;;;;;;1.70;1.60;;;;;;;;;;5000058;28;20456;-86
2024/04/20 09:02:32;;;;;;;1.63;1.55;;;;;;;;;;4995770;28;20042;-80
2024/04/20 09:04:58;;;;;;;1.60;1.50;;;;;;;;;;5004561;28;20066;-85
2024/04/20 09:07:26;;;;;;;1.50;1.40;;;;;;;;;;4986571;28;20458;-84
2024/04/20 09:09:51;;;;;;;1.60;1.50;;;;;;;;;;4979161;28;20029;-82
2024/04/20 09:12:18;;;;;;;1.55;1.45;;;;;;;;;;5007042;28;20125;-85
2024/04/20 09:14:43;;;;;;;1.80;1.70;;;;;;;;;;4992233;28;20057;-85
2024/04/20 09:17:09;;;;;;;2.08;1.80;;;;;;;;;;4991402;28;20034;-81
2024/04/20 09:19:35;;;;;;;1.65;1.55;;;;;;;;;;4999777;28;20047;-81
2024/04/20 09:22:05;;;;;;;2.42;1.38;;;;;;;;;;5005998;28;20042;-83
2024/04/20 09:24:31;;;;;;;2.10;1.77;;;;;;;;;;4956535;28;20054;-84
2024/04/20 09:26:58;;;;;;;1.40;1.30;;;;;;;;;;4997289;28;20022;-86
2024/04/20 09:29:50;;;;;;;1.15;1.05;;;;;;;;;;5107575;23;20045;31
2024/04/20 09:32:16;;;;;;;2.80;1.88;;;;;;;;;;4986809;28;20073;-85
2024/04/20 09:34:43;;;;;;;4.97;1.48;;;;;;;;;;4976930;28;20027;-87
2024/04/20 09:37:08;;;;;;;1.65;1.55;;;;;;;;;;4974944;28;20046;-83
2024/04/20 09:39:35;;;;;;;2.65;1.98;;;;;;;;;;4941147;28;20047;-85
2024/04/20 09:42:01;;;;;;;1.80;1.70;;;;;;;;;;4955737;28;20047;-84
2024/04/20 09:44:27;;;;;;;2.08;1.50;;;;;;;;;;4958274;28;20065;-82
2024/04/20 09:46:54;;;;;;;1.40;1.40;;;;;;;;;;4971124;28;20035;-82
2024/04/20 09:49:20;;;;;;;1.20;1.20;;;;;;;;;;4984346;28;20062;-82
2024/04/20 09:51:51;;;;;;;2.28;1.60;;;;;;;;;;4953946;28;20042;-82
2024/04/20 09:54:19;;;;;;;1.70;1.60;;;;;;;;;;4954862;28;20047;-83
2024/04/20 09:56:46;;;;;;;2.25;1.70;;;;;;;;;;4960515;28;20067;-83
2024/04/20 09:59:12;;;;;;;1.90;1.80;;;;;;;;;;4958451;29;20064;-82
2024/04/20 10:01:38;;;;;;;2.50;1.70;;;;;;;;;;4908863;29;20115;-81
2024/04/20 10:04:04;;;;;;;1.55;1.52;;;;;;;;;;4960429;29;20064;-84
2024/04/20 10:06:29;;;;;;;1.80;1.70;;;;;;;;;;4940644;29;20048;-82
2024/04/20 10:08:56;;;;;;;1.70;1.60;;;;;;;;;;4951875;29;20035;-84
2024/04/20 10:11:22;;;;;;;1.30;1.30;;;;;;;;;;4945336;29;20078;-85
2024/04/20 10:13:48;;;;;;;2.20;1.75;;;;;;;;;;4943222;29;20063;-85
2024/04/20 10:16:14;;;;;;;2.10;1.70;;;;;;;;;;4961393;29;20064;-82
2024/04/20 10:18:42;;;;;;;2.35;1.60;;;;;;;;;;4943495;29;20130;-83
2024/04/20 10:21:11;;;;;;;3.90;1.60;;;;;;;;;;4967767;29;20048;-87
2024/04/20 10:23:37;;;;;;;2.13;1.92;;;;;;;;;;4935098;29;20074;-85
2024/04/20 10:26:02;;;;;;;1.73;1.65;;;;;;;;;;4956836;29;20035;-85
2024/04/20 10:28:30;;;;;;;2.95;2.03;;;;;;;;;;4942311;29;20053;-84
2024/04/20 10:31:00;;;;;;;4.72;3.08;;;;;;;;;;4953302;29;20062;-84
2024/04/20 10:33:26;;;;;;;4.95;2.80;;;;;;;;;;4944737;29;20055;-83
2024/04/20 10:35:59;;;;;;;1.60;1.60;;;;;;;;;;4943764;29;20050;-85
2024/04/20 10:38:25;;;;;;;1.90;1.60;;;;;;;;;;4960425;29;20046;-84
2024/04/20 10:40:51;;;;;;;3.33;2.65;;;;;;;;;;4947694;29;20036;-83
2024/04/20 10:43:24;;;;;;;2.10;2.00;;;;;;;;;;4958327;29;20094;-86
2024/04/20 10:46:01;;;;;;;1.95;1.85;;;;;;;;;;4940044;29;20035;-85
2024/04/20 10:48:27;;;;;;;7.65;1.52;;;;;;;;;;4959162;29;20051;-85
2024/04/20 10:50:59;;;;;;;1.52;1.45;;;;;;;;;;4957207;29;20138;-84
2024/04/20 10:53:27;;;;;;;1.77;1.70;;;;;;;;;;4937428;29;20122;-84
2024/04/20 10:55:53;;;;;;;2.17;1.90;;;;;;;;;;4964388;29;20039;-86
2024/04/20 10:58:19;;;;;;;1.42;1.42;;;;;;;;;;4942965;29;20035;-87
2024/04/20 11:00:45;;;;;;;1.52;1.42;;;;;;;;;;4958639;29;20035;-83
2024/04/20 11:03:12;;;;;;;1.67;1.58;;;;;;;;;;4927429;29;20139;-81
2024/04/20 11:05:37;;;;;;;1.75;1.65;;;;;;;;;;4937028;29;20031;-84
2024/04/20 11:08:04;;;;;;;1.60;1.50;;;;;;;;;;4948623;29;20058;-83
2024/04/20 11:10:30;;;;;;;1.60;1.30;;;;;;;;;;4943744;29;20080;-82
2024/04/20 11:13:02;;;;;;;1.67;1.60;;;;;;;;;;4950412;29;20051;-84
2024/04/20 11:15:31;;;;;;;2.25;1.70;;;;;;;;;;4936261;29;20032;-84
2024/04/20 11:18:00;;;;;;;1.50;1.50;;;;;;;;;;4957392;29;20129;-83
2024/04/20 11:20:26;;;;;;;2.05;1.65;;;;;;;;;;4958087;29;20039;-84
2024/04/20 11:22:55;;;;;;;1.20;1.20;;;;;;;;;;4927495;29;20035;-82
2024/04/20 11:25:21;;;;;;;1.85;1.63;;;;;;;;;;4959574;28;20025;-84
2024/04/20 11:27:49;;;;;;;1.80;1.70;;;;;;;;;;4965192;29;20067;-82
2024/04/20 11:30:15;;;;;;;1.70;1.60;;;;;;;;;;4955938;29;20032;-82
2024/04/20 11:32:41;;;;;;;1.63;1.52;;;;;;;;;;4931113;29;20091;-78
2024/04/20 11:35:10;;;;;;;1.80;1.70;;;;;;;;;;4957836;29;20086;-81
2024/04/20 11:37:36;;;;;;;2.63;1.80;;;;;;;;;;4956985;29;20040;-85
2024/04/20 11:40:05;;;;;;;1.45;1.40;;;;;;;;;;4926098;29;20046;-82
2024/04/20 11:42:32;;;;;;;1.92;1.83;;;;;;;;;;4947662;29;20048;-83
2024/04/20 11:45:02;;;;;;;1.70;1.48;;;;;;;;;;4940097;29;20044;-84
2024/04/20 11:47:29;;;;;;;;;;;;;;;;;;4965380;29;20084;-84
2024/04/20 11:49:55;;;;;;;6.75;1.70;;;;;;;;;;4958096;29;19929;-83
2024/04/20 11:55:11;;;;;;;;;;;;;;;;;;4955671;29;20056;-82
2024/04/20 11:57:38;;;;;;;1.40;1.40;;;;;;;;;;4967026;29;19922;-83
2024/04/20 12:00:05;;;;;;;3.63;1.58;;;;;;;;;;4954350;29;20066;-83
2024/04/20 12:02:39;;;;;;;1.48;1.45;;;;;;;;;;4958847;29;20067;-84
2024/04/20 12:05:05;;;;;;;1.80;1.70;;;;;;;;;;4958739;29;20052;-85
2024/04/20 12:07:33;;;;;;;1.70;1.60;;;;;;;;;;4944429;29;20044;-81
2024/04/20 12:09:59;;;;;;;1.30;1.20;;;;;;;;;;4944085;29;20042;-82
2024/04/20 12:12:25;;;;;;;1.38;1.38;;;;;;;;;;4950373;29;20400;-82
2024/04/20 12:14:51;;;;;;;1.27;1.27;;;;;;;;;;4946654;29;20046;-80
2024/04/20 12:17:17;;;;;;;1.70;1.60;;;;;;;;;;4932567;29;20048;-81
2024/04/20 12:19:46;;;;;;;1.73;1.48;;;;;;;;;;4948803;29;20035;-83
2024/04/20 12:22:14;;;;;;;1.15;1.08;;;;;;;;;;4956881;29;20071;-82
2024/04/20 12:24:40;;;;;;;1.65;1.55;;;;;;;;;;4937823;29;20056;-83
2024/04/20 12:27:06;;;;;;;3.70;1.40;;;;;;;;;;4965166;29;20043;-83
2024/04/20 12:29:31;;;;;;;2.70;1.15;;;;;;;;;;4955407;29;20043;-82
2024/04/20 12:31:58;;;;;;;1.77;1.30;;;;;;;;;;4951677;29;20111;-83
2024/04/20 12:34:24;;;;;;;1.35;1.33;;;;;;;;;;4957722;29;20064;-83
2024/04/20 12:53:16;;;;;;;1.50;1.50;;;;;;;;;;5070562;27;20418;-77
2024/04/20 12:55:43;;;;;;;1.83;1.73;;;;;;;;;;5049548;28;20063;-79
2024/04/20 12:58:09;;;;;;;4.68;1.77;;;;;;;;;;5030376;28;20662;-78
2024/04/20 13:00:37;;;;;;;2.35;1.50;;;;;;;;;;5045146;28;20028;-77
2024/04/20 13:03:05;;;;;;;2.15;1.67;;;;;;;;;;5053824;28;20459;-76
2024/04/20 13:05:32;;;;;;;1.70;1.60;;;;;;;;;;5031514;28;20087;-78
2024/04/20 13:07:58;;;;;;;1.65;1.55;;;;;;;;;;5044989;28;20134;-77
2024/04/20 13:10:24;;;;;;;1.83;1.73;;;;;;;;;;5047919;28;20062;-78
2024/04/20 13:12:51;;;;;;;2.15;1.75;;;;;;;;;;5047863;28;20055;-77
2024/04/20 13:15:17;;;;;;;1.63;1.50;;;;;;;;;;5056982;28;20110;-78
2024/04/20 13:17:43;;;;;;;1.67;1.58;;;;;;;;;;5049069;28;20075;-78
2024/04/20 13:20:09;;;;;;;1.52;1.50;;;;;;;;;;5045867;28;20025;-78
2024/04/20 13:22:35;;;;;;;1.40;1.30;;;;;;;;;;5059479;28;20049;-80
2024/04/20 13:25:01;;;;;;;5.20;2.13;;;;;;;;;;5058420;28;20519;-78
2024/04/20 13:27:29;;;;;;;1.48;1.48;;;;;;;;;;5056355;28;20052;-78
2024/04/20 13:29:55;;;;;;;1.83;1.70;;;;;;;;;;5046100;28;20029;-78
2024/04/20 13:32:21;;;;;;;1.70;1.60;;;;;;;;;;5044504;28;20053;-77
2024/04/20 13:34:54;;;;;;;1.58;1.58;;;;;;;;;;5064651;28;20415;-78
2024/04/20 13:37:20;;;;;;;1.58;1.15;;;;;;;;;;5047485;28;20128;-81
2024/04/20 13:39:46;;;;;;;1.17;1.15;;;;;;;;;;5053406;28;20134;-79
2024/04/20 13:42:12;;;;;;;1.17;1.17;;;;;;;;;;5047656;28;20607;-79
2024/04/20 13:44:38;;;;;;;1.33;1.23;;;;;;;;;;5053521;28;20048;-80
2024/04/20 13:47:03;;;;;;;1.70;1.60;;;;;;;;;;5065755;28;20123;-78
2024/04/20 13:49:29;;;;;;;1.52;1.40;;;;;;;;;;5040172;28;20119;-79
2024/04/20 13:51:58;;;;;;;1.70;1.60;;;;;;;;;;5055620;28;20092;-79
2024/04/20 13:54:24;;;;;;;1.55;1.45;;;;;;;;;;5053110;28;20119;-78
2024/04/20 13:56:54;;;;;;;1.50;1.48;;;;;;;;;;5034125;28;20097;-79
2024/04/20 13:59:20;;;;;;;2.00;1.40;;;;;;;;;;5055211;28;20045;-77
2024/04/20 14:01:46;;;;;;;1.85;1.33;;;;;;;;;;5065233;28;20098;-75
2024/04/20 14:04:12;;;;;;;1.50;1.40;;;;;;;;;;5057034;28;20095;-76
2024/04/20 14:06:38;;;;;;;2.60;1.40;;;;;;;;;;5071696;28;20028;-76
2024/04/20 14:09:04;;;;;;;1.60;1.52;;;;;;;;;;5049087;28;20047;-77
2024/04/20 14:11:30;;;;;;;1.35;1.30;;;;;;;;;;5051273;28;20021;-77
2024/04/20 14:13:56;;;;;;;1.48;1.38;;;;;;;;;;5039849;28;20119;-80
2024/04/20 14:16:21;;;;;;;2.45;2.08;;;;;;;;;;5068893;28;20033;-76
2024/04/20 14:18:52;;;;;;;1.67;1.55;;;;;;;;;;5067930;28;20044;-79
2024/04/20 14:21:18;;;;;;;1.60;1.50;;;;;;;;;;5050417;28;20040;-78
2024/04/20 14:23:44;;;;;;;1.52;1.42;;;;;;;;;;5052331;28;20059;-79
2024/04/20 14:26:10;;;;;;;6.05;1.50;;;;;;;;;;5049582;28;20040;-82
2024/04/20 14:28:36;;;;;;;1.70;1.60;;;;;;;;;;5053199;28;20101;-79
2024/04/20 14:31:02;;;;;;;1.58;1.40;;;;;;;;;;5070543;28;20040;-79
2024/04/20 14:33:32;;;;;;;1.52;1.42;;;;;;;;;;5059040;28;20049;-78
2024/04/20 14:35:59;;;;;;;2.77;1.40;;;;;;;;;;5023034;28;20040;-78
2024/04/20 14:38:24;;;;;;;2.47;1.30;;;;;;;;;;5014423;28;20334;-80
2024/04/20 14:40:50;;;;;;;1.10;1.10;;;;;;;;;;5016031;28;20076;-80
2024/04/20 14:43:22;;;;;;;1.75;1.65;;;;;;;;;;5051073;28;20503;-78
2024/04/20 14:45:48;;;;;;;1.73;1.40;;;;;;;;;;5017154;28;20520;-79
2024/04/20 14:48:14;;;;;;;1.73;1.63;;;;;;;;;;5052497;28;20044;-78
2024/04/20 14:53:25;;;;;;;1.73;1.63;;;;;;;;;;5052657;28;20055;-80
2024/04/20 14:56:01;;;;;;;1.48;1.40;;;;;;;;;;5030502;28;20033;-79
2024/04/20 14:58:27;;;;;;;1.92;1.50;;;;;;;;;;5029778;28;21751;-79
2024/04/20 15:00:53;;;;;;;1.85;1.30;;;;;;;;;;5031170;28;20033;-79
2024/04/20 15:03:20;;;;;;;1.60;1.50;;;;;;;;;;5048967;28;20052;-81